sensor_id;sensor_type;location;lat;lon;timestamp;P1;P2;P0
69123;PMS5003;56232;53.384;-2.732;2022-07-06T00:00:09;5;5;
69123;PMS5003;56232;53.384;-2.732;2022-07-06T00:02:34;6;6;
69123;PMS5003;56232;53.384;-2.732;2022-07-06T00:05:00;6;6;
69123;PMS5003;56232;53.384;-2.732;2022-07-06T00:07:26;6;6;
69123;PMS5003;56232;53.384;-2.732;2022-07-06T00:09:51;6;5;
69123;PMS5003;56232;53.384;-2.732;2022-07-06T00:12:17;6;6;
69123;PMS5003;56232;53.384;-2.732;2022-07-06T00:14:43;7;7;
69123;PMS5003;56232;53.384;-2.732;2022-07-06T00:17:08;4;4;
69123;PMS5003;56232;53.384;-2.732;2022-07-06T00:19:34;6;6;
69123;PMS5003;56232;53.384;-2.732;2022-07-06T00:22:00;5;5;
69123;PMS5003;56232;53.384;-2.732;2022-07-06T00:24:25;6;6;
69123;PMS5003;56232;53.384;-2.732;2022-07-06T00:26:51;4;4;
69123;PMS5003;56232;53.384;-2.732;2022-07-06T00:29:16;5;5;
69123;PMS5003;56232;53.384;-2.732;2022-07-06T00:31:42;5;5;
69123;PMS5003;56232;53.384;-2.732;2022-07-06T00:34:08;7;7;
69123;PMS5003;56232;53.384;-2.732;2022-07-06T00:36:33;6;6;
69123;PMS5003;56232;53.384;-2.732;2022-07-06T00:38:59;7;6;
69123;PMS5003;56232;53.384;-2.732;2022-07-06T00:41:25;6;6;
69123;PMS5003;56232;53.384;-2.732;2022-07-06T00:43:51;5;5;
69123;PMS5003;56232;53.384;-2.732;2022-07-06T00:46:16;6;6;
69123;PMS5003;56232;53.384;-2.732;2022-07-06T00:48:42;6;6;
69123;PMS5003;56232;53.384;-2.732;2022-07-06T00:51:07;7;6;
69123;PMS5003;56232;53.384;-2.732;2022-07-06T00:53:32;6;6;
69123;PMS5003;56232;53.384;-2.732;2022-07-06T00:55:58;6;6;
69123;PMS5003;56232;53.384;-2.732;2022-07-06T00:58:24;7;7;
69123;PMS5003;56232;53.384;-2.732;2022-07-06T01:00:49;6;6;
69123;PMS5003;56232;53.384;-2.732;2022-07-06T01:03:15;5;5;
69123;PMS5003;56232;53.384;-2.732;2022-07-06T01:05:41;7;6;
69123;PMS5003;56232;53.384;-2.732;2022-07-06T01:08:06;5;5;
69123;PMS5003;56232;53.384;-2.732;2022-07-06T01:10:32;6;6;
69123;PMS5003;56232;53.384;-2.732;2022-07-06T01:12:58;6;6;
69123;PMS5003;56232;53.384;-2.732;2022-07-06T01:15:24;4;4;
69123;PMS5003;56232;53.384;-2.732;2022-07-06T01:17:48;4;4;
69123;PMS5003;56232;53.384;-2.732;2022-07-06T01:20:14;5;5;
69123;PMS5003;56232;53.384;-2.732;2022-07-06T01:22:39;6;6;
69123;PMS5003;56232;53.384;-2.732;2022-07-06T01:25:05;6;5;
69123;PMS5003;56232;53.384;-2.732;2022-07-06T01:27:31;5;5;
69123;PMS5003;56232;53.384;-2.732;2022-07-06T01:29:56;6;6;
69123;PMS5003;56232;53.384;-2.732;2022-07-06T01:32:23;3;3;
69123;PMS5003;56232;53.384;-2.732;2022-07-06T01:34:48;3;3;
69123;PMS5003;56232;53.384;-2.732;2022-07-06T01:37:13;3;3;
69123;PMS5003;56232;53.384;-2.732;2022-07-06T01:39:39;4;4;
69123;PMS5003;56232;53.384;-2.732;2022-07-06T01:42:04;6;5;
69123;PMS5003;56232;53.384;-2.732;2022-07-06T01:44:30;3;3;
69123;PMS5003;56232;53.384;-2.732;2022-07-06T01:46:55;5;5;
69123;PMS5003;56232;53.384;-2.732;2022-07-06T01:49:21;6;6;
69123;PMS5003;56232;53.384;-2.732;2022-07-06T01:51:46;5;5;
69123;PMS5003;56232;53.384;-2.732;2022-07-06T01:54:12;5;4;
69123;PMS5003;56232;53.384;-2.732;2022-07-06T01:56:37;3;3;
69123;PMS5003;56232;53.384;-2.732;2022-07-06T01:59:03;6;5;
69123;PMS5003;56232;53.384;-2.732;2022-07-06T02:01:29;3;3;
69123;PMS5003;56232;53.384;-2.732;2022-07-06T02:03:54;5;5;
69123;PMS5003;56232;53.384;-2.732;2022-07-06T02:06:20;4;3;
69123;PMS5003;56232;53.384;-2.732;2022-07-06T02:08:46;5;4;
69123;PMS5003;56232;53.384;-2.732;2022-07-06T02:11:11;4;4;
69123;PMS5003;56232;53.384;-2.732;2022-07-06T02:13:37;4;4;
69123;PMS5003;56232;53.384;-2.732;2022-07-06T02:16:03;3;3;
69123;PMS5003;56232;53.384;-2.732;2022-07-06T02:18:28;2;2;
69123;PMS5003;56232;53.384;-2.732;2022-07-06T02:20:54;1;1;
69123;PMS5003;56232;53.384;-2.732;2022-07-06T02:23:19;6;5;
69123;PMS5003;56232;53.384;-2.732;2022-07-06T02:25:45;3;2;
69123;PMS5003;56232;53.384;-2.732;2022-07-06T02:28:11;2;2;
69123;PMS5003;56232;53.384;-2.732;2022-07-06T02:30:36;4;3;
69123;PMS5003;56232;53.384;-2.732;2022-07-06T02:33:02;4;4;
69123;PMS5003;56232;53.384;-2.732;2022-07-06T02:35:27;4;4;
69123;PMS5003;56232;53.384;-2.732;2022-07-06T02:37:53;3;3;
69123;PMS5003;56232;53.384;-2.732;2022-07-06T02:40:19;4;4;
69123;PMS5003;56232;53.384;-2.732;2022-07-06T02:42:44;3;3;
69123;PMS5003;56232;53.384;-2.732;2022-07-06T02:45:10;3;3;
69123;PMS5003;56232;53.384;-2.732;2022-07-06T02:47:35;2;2;
69123;PMS5003;56232;53.384;-2.732;2022-07-06T02:50:01;1;1;
69123;PMS5003;56232;53.384;-2.732;2022-07-06T02:52:27;4;3;
69123;PMS5003;56232;53.384;-2.732;2022-07-06T02:54:52;4;4;
69123;PMS5003;56232;53.384;-2.732;2022-07-06T02:57:18;3;3;
69123;PMS5003;56232;53.384;-2.732;2022-07-06T02:59:43;1;1;
69123;PMS5003;56232;53.384;-2.732;2022-07-06T03:02:09;4;3;
69123;PMS5003;56232;53.384;-2.732;2022-07-06T03:04:34;3;3;
69123;PMS5003;56232;53.384;-2.732;2022-07-06T03:07:00;3;2;
69123;PMS5003;56232;53.384;-2.732;2022-07-06T03:09:26;3;2;
69123;PMS5003;56232;53.384;-2.732;2022-07-06T03:11:51;4;4;
69123;PMS5003;56232;53.384;-2.732;2022-07-06T03:14:17;4;3;
69123;PMS5003;56232;53.384;-2.732;2022-07-06T03:16:42;5;5;
69123;PMS5003;56232;53.384;-2.732;2022-07-06T03:19:08;6;4;
69123;PMS5003;56232;53.384;-2.732;2022-07-06T03:21:33;3;3;
69123;PMS5003;56232;53.384;-2.732;2022-07-06T03:23:59;3;3;
69123;PMS5003;56232;53.384;-2.732;2022-07-06T03:26:24;3;3;
69123;PMS5003;56232;53.384;-2.732;2022-07-06T03:28:50;2;2;
69123;PMS5003;56232;53.384;-2.732;2022-07-06T03:31:15;1;1;
69123;PMS5003;56232;53.384;-2.732;2022-07-06T03:33:41;3;2;
69123;PMS5003;56232;53.384;-2.732;2022-07-06T03:36:07;3;2;
69123;PMS5003;56232;53.384;-2.732;2022-07-06T03:38:32;3;3;
69123;PMS5003;56232;53.384;-2.732;2022-07-06T03:40:57;1;1;
69123;PMS5003;56232;53.384;-2.732;2022-07-06T03:43:23;1;1;
69123;PMS5003;56232;53.384;-2.732;2022-07-06T03:45:49;4;4;
69123;PMS5003;56232;53.384;-2.732;2022-07-06T03:48:14;2;2;
69123;PMS5003;56232;53.384;-2.732;2022-07-06T03:50:40;4;4;
69123;PMS5003;56232;53.384;-2.732;2022-07-06T03:53:05;3;3;
69123;PMS5003;56232;53.384;-2.732;2022-07-06T03:55:31;3;3;
69123;PMS5003;56232;53.384;-2.732;2022-07-06T03:57:57;2;2;
69123;PMS5003;56232;53.384;-2.732;2022-07-06T04:00:23;5;4;
69123;PMS5003;56232;53.384;-2.732;2022-07-06T04:02:48;3;3;
69123;PMS5003;56232;53.384;-2.732;2022-07-06T04:05:13;1;1;
69123;PMS5003;56232;53.384;-2.732;2022-07-06T04:07:39;3;3;
69123;PMS5003;56232;53.384;-2.732;2022-07-06T04:10:05;3;3;
69123;PMS5003;56232;53.384;-2.732;2022-07-06T04:12:30;3;3;
69123;PMS5003;56232;53.384;-2.732;2022-07-06T04:14:56;4;3;
69123;PMS5003;56232;53.384;-2.732;2022-07-06T04:17:22;4;4;
69123;PMS5003;56232;53.384;-2.732;2022-07-06T04:19:47;2;2;
69123;PMS5003;56232;53.384;-2.732;2022-07-06T04:22:12;4;4;
69123;PMS5003;56232;53.384;-2.732;2022-07-06T04:24:38;3;3;
69123;PMS5003;56232;53.384;-2.732;2022-07-06T04:27:03;4;3;
69123;PMS5003;56232;53.384;-2.732;2022-07-06T04:29:29;2;2;
69123;PMS5003;56232;53.384;-2.732;2022-07-06T04:31:55;3;1;
69123;PMS5003;56232;53.384;-2.732;2022-07-06T04:34:20;5;4;
69123;PMS5003;56232;53.384;-2.732;2022-07-06T04:36:46;3;2;
69123;PMS5003;56232;53.384;-2.732;2022-07-06T04:39:11;4;4;
69123;PMS5003;56232;53.384;-2.732;2022-07-06T04:41:37;4;4;
69123;PMS5003;56232;53.384;-2.732;2022-07-06T04:44:03;3;3;
69123;PMS5003;56232;53.384;-2.732;2022-07-06T04:46:28;3;3;
69123;PMS5003;56232;53.384;-2.732;2022-07-06T04:48:54;4;3;
69123;PMS5003;56232;53.384;-2.732;2022-07-06T04:51:20;3;3;
69123;PMS5003;56232;53.384;-2.732;2022-07-06T04:53:45;4;4;
69123;PMS5003;56232;53.384;-2.732;2022-07-06T04:56:10;3;3;
69123;PMS5003;56232;53.384;-2.732;2022-07-06T04:58:36;2;1;
69123;PMS5003;56232;53.384;-2.732;2022-07-06T05:01:02;3;3;
69123;PMS5003;56232;53.384;-2.732;2022-07-06T05:03:27;3;3;
69123;PMS5003;56232;53.384;-2.732;2022-07-06T05:05:53;6;4;
69123;PMS5003;56232;53.384;-2.732;2022-07-06T05:08:19;5;4;
69123;PMS5003;56232;53.384;-2.732;2022-07-06T05:10:43;7;7;
69123;PMS5003;56232;53.384;-2.732;2022-07-06T05:13:09;3;3;
69123;PMS5003;56232;53.384;-2.732;2022-07-06T05:15:35;5;3;
69123;PMS5003;56232;53.384;-2.732;2022-07-06T05:18:00;5;4;
69123;PMS5003;56232;53.384;-2.732;2022-07-06T05:20:26;3;3;
69123;PMS5003;56232;53.384;-2.732;2022-07-06T05:22:52;5;5;
69123;PMS5003;56232;53.384;-2.732;2022-07-06T05:25:17;1;1;
69123;PMS5003;56232;53.384;-2.732;2022-07-06T05:27:43;4;4;
69123;PMS5003;56232;53.384;-2.732;2022-07-06T05:30:09;4;4;
69123;PMS5003;56232;53.384;-2.732;2022-07-06T05:32:34;4;4;
69123;PMS5003;56232;53.384;-2.732;2022-07-06T05:35:13;3;3;
69123;PMS5003;56232;53.384;-2.732;2022-07-06T05:37:25;4;3;
69123;PMS5003;56232;53.384;-2.732;2022-07-06T05:39:50;3;3;
69123;PMS5003;56232;53.384;-2.732;2022-07-06T05:42:16;4;4;
69123;PMS5003;56232;53.384;-2.732;2022-07-06T05:44:41;5;4;
69123;PMS5003;56232;53.384;-2.732;2022-07-06T05:47:07;4;3;
69123;PMS5003;56232;53.384;-2.732;2022-07-06T05:49:33;3;3;
69123;PMS5003;56232;53.384;-2.732;2022-07-06T05:51:59;3;3;
69123;PMS5003;56232;53.384;-2.732;2022-07-06T05:54:24;3;2;
69123;PMS5003;56232;53.384;-2.732;2022-07-06T05:56:50;2;2;
69123;PMS5003;56232;53.384;-2.732;2022-07-06T05:59:15;5;4;
69123;PMS5003;56232;53.384;-2.732;2022-07-06T06:01:41;3;3;
69123;PMS5003;56232;53.384;-2.732;2022-07-06T06:04:06;4;4;
69123;PMS5003;56232;53.384;-2.732;2022-07-06T06:06:32;3;3;
69123;PMS5003;56232;53.384;-2.732;2022-07-06T06:08:58;3;3;
69123;PMS5003;56232;53.384;-2.732;2022-07-06T06:11:24;3;3;
69123;PMS5003;56232;53.384;-2.732;2022-07-06T06:13:49;3;2;
69123;PMS5003;56232;53.384;-2.732;2022-07-06T06:16:14;2;2;
69123;PMS5003;56232;53.384;-2.732;2022-07-06T06:18:40;3;2;
69123;PMS5003;56232;53.384;-2.732;2022-07-06T06:21:06;3;3;
69123;PMS5003;56232;53.384;-2.732;2022-07-06T06:23:31;2;2;
69123;PMS5003;56232;53.384;-2.732;2022-07-06T06:25:57;3;3;
69123;PMS5003;56232;53.384;-2.732;2022-07-06T06:28:23;4;4;
69123;PMS5003;56232;53.384;-2.732;2022-07-06T06:30:48;6;5;
69123;PMS5003;56232;53.384;-2.732;2022-07-06T06:33:14;3;3;
69123;PMS5003;56232;53.384;-2.732;2022-07-06T06:35:41;3;2;
69123;PMS5003;56232;53.384;-2.732;2022-07-06T06:38:04;2;2;
69123;PMS5003;56232;53.384;-2.732;2022-07-06T06:40:30;4;4;
69123;PMS5003;56232;53.384;-2.732;2022-07-06T06:42:56;2;2;
69123;PMS5003;56232;53.384;-2.732;2022-07-06T06:45:21;2;2;
69123;PMS5003;56232;53.384;-2.732;2022-07-06T06:47:47;2;2;
69123;PMS5003;56232;53.384;-2.732;2022-07-06T06:50:12;2;2;
69123;PMS5003;56232;53.384;-2.732;2022-07-06T06:52:38;2;2;
69123;PMS5003;56232;53.384;-2.732;2022-07-06T06:55:04;3;3;
69123;PMS5003;56232;53.384;-2.732;2022-07-06T06:57:29;3;3;
69123;PMS5003;56232;53.384;-2.732;2022-07-06T06:59:55;4;3;
69123;PMS5003;56232;53.384;-2.732;2022-07-06T07:02:20;2;2;
69123;PMS5003;56232;53.384;-2.732;2022-07-06T07:04:46;4;3;
69123;PMS5003;56232;53.384;-2.732;2022-07-06T07:07:12;1;1;
69123;PMS5003;56232;53.384;-2.732;2022-07-06T07:09:37;4;3;
69123;PMS5003;56232;53.384;-2.732;2022-07-06T07:12:03;3;2;
69123;PMS5003;56232;53.384;-2.732;2022-07-06T07:14:29;1;1;
69123;PMS5003;56232;53.384;-2.732;2022-07-06T07:16:54;2;2;
69123;PMS5003;56232;53.384;-2.732;2022-07-06T07:19:20;2;2;
69123;PMS5003;56232;53.384;-2.732;2022-07-06T07:21:45;3;2;
69123;PMS5003;56232;53.384;-2.732;2022-07-06T07:24:11;2;2;
69123;PMS5003;56232;53.384;-2.732;2022-07-06T07:26:37;2;2;
69123;PMS5003;56232;53.384;-2.732;2022-07-06T07:29:07;2;2;
69123;PMS5003;56232;53.384;-2.732;2022-07-06T07:31:28;2;2;
69123;PMS5003;56232;53.384;-2.732;2022-07-06T07:33:53;2;2;
69123;PMS5003;56232;53.384;-2.732;2022-07-06T07:36:19;2;1;
69123;PMS5003;56232;53.384;-2.732;2022-07-06T07:38:45;0;0;
69123;PMS5003;56232;53.384;-2.732;2022-07-06T07:41:10;2;1;
69123;PMS5003;56232;53.384;-2.732;2022-07-06T07:43:36;2;2;
69123;PMS5003;56232;53.384;-2.732;2022-07-06T07:46:02;1;1;
69123;PMS5003;56232;53.384;-2.732;2022-07-06T07:48:27;3;2;
69123;PMS5003;56232;53.384;-2.732;2022-07-06T07:50:53;3;2;
69123;PMS5003;56232;53.384;-2.732;2022-07-06T07:53:18;3;3;
69123;PMS5003;56232;53.384;-2.732;2022-07-06T07:55:44;3;3;
69123;PMS5003;56232;53.384;-2.732;2022-07-06T07:58:09;2;2;
69123;PMS5003;56232;53.384;-2.732;2022-07-06T08:00:35;3;3;
69123;PMS5003;56232;53.384;-2.732;2022-07-06T08:03:00;2;2;
69123;PMS5003;56232;53.384;-2.732;2022-07-06T08:05:26;2;2;
69123;PMS5003;56232;53.384;-2.732;2022-07-06T08:07:51;2;2;
69123;PMS5003;56232;53.384;-2.732;2022-07-06T08:10:17;11;8;
69123;PMS5003;56232;53.384;-2.732;2022-07-06T08:12:43;2;2;
69123;PMS5003;56232;53.384;-2.732;2022-07-06T08:15:08;2;2;
69123;PMS5003;56232;53.384;-2.732;2022-07-06T08:17:34;4;4;
69123;PMS5003;56232;53.384;-2.732;2022-07-06T08:19:59;3;3;
69123;PMS5003;56232;53.384;-2.732;2022-07-06T08:22:25;2;2;
69123;PMS5003;56232;53.384;-2.732;2022-07-06T08:24:50;3;3;
69123;PMS5003;56232;53.384;-2.732;2022-07-06T08:27:16;2;1;
69123;PMS5003;56232;53.384;-2.732;2022-07-06T08:29:42;1;1;
69123;PMS5003;56232;53.384;-2.732;2022-07-06T08:32:07;2;1;
69123;PMS5003;56232;53.384;-2.732;2022-07-06T08:34:33;3;2;
69123;PMS5003;56232;53.384;-2.732;2022-07-06T08:36:58;3;3;
69123;PMS5003;56232;53.384;-2.732;2022-07-06T08:39:24;4;3;
69123;PMS5003;56232;53.384;-2.732;2022-07-06T08:41:49;2;2;
69123;PMS5003;56232;53.384;-2.732;2022-07-06T08:44:15;4;3;
69123;PMS5003;56232;53.384;-2.732;2022-07-06T08:46:41;1;1;
69123;PMS5003;56232;53.384;-2.732;2022-07-06T08:49:06;3;3;
69123;PMS5003;56232;53.384;-2.732;2022-07-06T08:51:32;3;3;
69123;PMS5003;56232;53.384;-2.732;2022-07-06T08:53:57;3;3;
69123;PMS5003;56232;53.384;-2.732;2022-07-06T08:56:24;5;5;
69123;PMS5003;56232;53.384;-2.732;2022-07-06T08:58:49;4;3;
69123;PMS5003;56232;53.384;-2.732;2022-07-06T09:01:14;5;3;
69123;PMS5003;56232;53.384;-2.732;2022-07-06T09:03:40;4;3;
69123;PMS5003;56232;53.384;-2.732;2022-07-06T09:06:05;3;3;
69123;PMS5003;56232;53.384;-2.732;2022-07-06T09:08:31;2;2;
69123;PMS5003;56232;53.384;-2.732;2022-07-06T09:10:56;4;4;
69123;PMS5003;56232;53.384;-2.732;2022-07-06T09:13:22;3;3;
69123;PMS5003;56232;53.384;-2.732;2022-07-06T09:15:47;5;5;
69123;PMS5003;56232;53.384;-2.732;2022-07-06T09:18:13;3;3;
69123;PMS5003;56232;53.384;-2.732;2022-07-06T09:20:40;4;3;
69123;PMS5003;56232;53.384;-2.732;2022-07-06T09:23:05;9;7;
69123;PMS5003;56232;53.384;-2.732;2022-07-06T09:25:30;5;5;
69123;PMS5003;56232;53.384;-2.732;2022-07-06T09:27:56;7;5;
69123;PMS5003;56232;53.384;-2.732;2022-07-06T09:30:21;3;3;
69123;PMS5003;56232;53.384;-2.732;2022-07-06T09:32:46;4;4;
69123;PMS5003;56232;53.384;-2.732;2022-07-06T09:40:15;4;3;
69123;PMS5003;56232;53.384;-2.732;2022-07-06T09:42:28;5;4;
69123;PMS5003;56232;53.384;-2.732;2022-07-06T09:44:54;4;3;
69123;PMS5003;56232;53.384;-2.732;2022-07-06T09:47:19;4;3;
69123;PMS5003;56232;53.384;-2.732;2022-07-06T09:49:46;4;4;
69123;PMS5003;56232;53.384;-2.732;2022-07-06T09:52:11;4;4;
69123;PMS5003;56232;53.384;-2.732;2022-07-06T09:54:37;4;2;
69123;PMS5003;56232;53.384;-2.732;2022-07-06T09:57:02;3;2;
69123;PMS5003;56232;53.384;-2.732;2022-07-06T09:59:28;4;4;
69123;PMS5003;56232;53.384;-2.732;2022-07-06T10:01:53;1;1;
69123;PMS5003;56232;53.384;-2.732;2022-07-06T10:04:18;5;5;
69123;PMS5003;56232;53.384;-2.732;2022-07-06T10:06:44;5;4;
69123;PMS5003;56232;53.384;-2.732;2022-07-06T10:09:10;3;3;
69123;PMS5003;56232;53.384;-2.732;2022-07-06T10:11:37;3;1;
69123;PMS5003;56232;53.384;-2.732;2022-07-06T10:14:01;4;4;
69123;PMS5003;56232;53.384;-2.732;2022-07-06T10:16:26;4;3;
69123;PMS5003;56232;53.384;-2.732;2022-07-06T10:18:51;3;3;
69123;PMS5003;56232;53.384;-2.732;2022-07-06T10:21:17;2;2;
69123;PMS5003;56232;53.384;-2.732;2022-07-06T10:23:42;5;4;
69123;PMS5003;56232;53.384;-2.732;2022-07-06T10:26:08;4;4;
69123;PMS5003;56232;53.384;-2.732;2022-07-06T10:28:33;6;6;
69123;PMS5003;56232;53.384;-2.732;2022-07-06T10:30:58;2;2;
69123;PMS5003;56232;53.384;-2.732;2022-07-06T10:33:25;6;5;
69123;PMS5003;56232;53.384;-2.732;2022-07-06T10:35:49;4;4;
69123;PMS5003;56232;53.384;-2.732;2022-07-06T10:38:15;6;5;
69123;PMS5003;56232;53.384;-2.732;2022-07-06T10:40:41;5;4;
69123;PMS5003;56232;53.384;-2.732;2022-07-06T10:43:08;3;3;
69123;PMS5003;56232;53.384;-2.732;2022-07-06T10:50:23;2;2;
69123;PMS5003;56232;53.384;-2.732;2022-07-06T10:52:49;5;4;
69123;PMS5003;56232;53.384;-2.732;2022-07-06T11:00:05;4;3;
69123;PMS5003;56232;53.384;-2.732;2022-07-06T11:04:56;1;1;
69123;PMS5003;56232;53.384;-2.732;2022-07-06T11:07:21;2;2;
69123;PMS5003;56232;53.384;-2.732;2022-07-06T11:12:14;2;2;
69123;PMS5003;56232;53.384;-2.732;2022-07-06T11:14:38;2;2;
69123;PMS5003;56232;53.384;-2.732;2022-07-06T11:17:03;2;2;
69123;PMS5003;56232;53.384;-2.732;2022-07-06T11:19:29;2;2;
69123;PMS5003;56232;53.384;-2.732;2022-07-06T11:21:55;3;2;
69123;PMS5003;56232;53.384;-2.732;2022-07-06T11:24:20;2;2;
69123;PMS5003;56232;53.384;-2.732;2022-07-06T11:26:47;1;1;
69123;PMS5003;56232;53.384;-2.732;2022-07-06T11:29:11;2;2;
69123;PMS5003;56232;53.384;-2.732;2022-07-06T11:31:37;2;2;
69123;PMS5003;56232;53.384;-2.732;2022-07-06T11:34:02;1;1;
69123;PMS5003;56232;53.384;-2.732;2022-07-06T11:36:27;1;1;
69123;PMS5003;56232;53.384;-2.732;2022-07-06T11:38:53;2;2;
69123;PMS5003;56232;53.384;-2.732;2022-07-06T11:41:24;2;2;
69123;PMS5003;56232;53.384;-2.732;2022-07-06T11:43:44;3;2;
69123;PMS5003;56232;53.384;-2.732;2022-07-06T11:48:35;2;2;
69123;PMS5003;56232;53.384;-2.732;2022-07-06T11:51:01;1;1;
69123;PMS5003;56232;53.384;-2.732;2022-07-06T11:53:26;1;1;
69123;PMS5003;56232;53.384;-2.732;2022-07-06T11:55:52;3;2;
69123;PMS5003;56232;53.384;-2.732;2022-07-06T11:58:17;2;2;
69123;PMS5003;56232;53.384;-2.732;2022-07-06T12:00:43;2;2;
69123;PMS5003;56232;53.384;-2.732;2022-07-06T12:03:08;3;3;
69123;PMS5003;56232;53.384;-2.732;2022-07-06T12:05:34;2;1;
69123;PMS5003;56232;53.384;-2.732;2022-07-06T12:12:50;2;2;
69123;PMS5003;56232;53.384;-2.732;2022-07-06T12:15:15;2;1;
69123;PMS5003;56232;53.384;-2.732;2022-07-06T12:20:07;3;2;
69123;PMS5003;56232;53.384;-2.732;2022-07-06T12:22:32;2;2;
69123;PMS5003;56232;53.384;-2.732;2022-07-06T12:24:58;3;3;
69123;PMS5003;56232;53.384;-2.732;2022-07-06T12:27:24;2;1;
69123;PMS5003;56232;53.384;-2.732;2022-07-06T12:29:49;2;2;
69123;PMS5003;56232;53.384;-2.732;2022-07-06T12:32:15;0;0;
69123;PMS5003;56232;53.384;-2.732;2022-07-06T12:34:40;1;1;
69123;PMS5003;56232;53.384;-2.732;2022-07-06T12:37:06;1;1;
69123;PMS5003;56232;53.384;-2.732;2022-07-06T12:39:31;1;1;
69123;PMS5003;56232;53.384;-2.732;2022-07-06T12:42:00;1;1;
69123;PMS5003;56232;53.384;-2.732;2022-07-06T12:44:23;2;1;
69123;PMS5003;56232;53.384;-2.732;2022-07-06T12:46:48;0;0;
69123;PMS5003;56232;53.384;-2.732;2022-07-06T12:49:14;0;0;
69123;PMS5003;56232;53.384;-2.732;2022-07-06T12:56:30;1;1;
69123;PMS5003;56232;53.384;-2.732;2022-07-06T12:58:56;2;2;
69123;PMS5003;56232;53.384;-2.732;2022-07-06T13:01:21;1;1;
69123;PMS5003;56232;53.384;-2.732;2022-07-06T13:03:46;0;0;
69123;PMS5003;56232;53.384;-2.732;2022-07-06T13:06:12;0;0;
69123;PMS5003;56232;53.384;-2.732;2022-07-06T13:08:37;0;0;
69123;PMS5003;56232;53.384;-2.732;2022-07-06T13:11:03;0;0;
69123;PMS5003;56232;53.384;-2.732;2022-07-06T13:13:28;0;0;
69123;PMS5003;56232;53.384;-2.732;2022-07-06T13:15:54;2;2;
69123;PMS5003;56232;53.384;-2.732;2022-07-06T13:18:19;2;2;
69123;PMS5003;56232;53.384;-2.732;2022-07-06T13:20:45;1;1;
69123;PMS5003;56232;53.384;-2.732;2022-07-06T13:23:11;0;0;
69123;PMS5003;56232;53.384;-2.732;2022-07-06T13:25:36;0;0;
69123;PMS5003;56232;53.384;-2.732;2022-07-06T13:28:02;2;1;
69123;PMS5003;56232;53.384;-2.732;2022-07-06T13:30:27;2;1;
69123;PMS5003;56232;53.384;-2.732;2022-07-06T13:32:53;1;1;
69123;PMS5003;56232;53.384;-2.732;2022-07-06T13:35:18;2;2;
69123;PMS5003;56232;53.384;-2.732;2022-07-06T13:37:44;1;1;
69123;PMS5003;56232;53.384;-2.732;2022-07-06T13:40:10;1;1;
69123;PMS5003;56232;53.384;-2.732;2022-07-06T13:42:35;1;1;
69123;PMS5003;56232;53.384;-2.732;2022-07-06T13:45:00;1;1;
69123;PMS5003;56232;53.384;-2.732;2022-07-06T13:47:26;1;1;
69123;PMS5003;56232;53.384;-2.732;2022-07-06T13:49:51;2;1;
69123;PMS5003;56232;53.384;-2.732;2022-07-06T13:52:17;1;1;
69123;PMS5003;56232;53.384;-2.732;2022-07-06T13:54:43;1;1;
69123;PMS5003;56232;53.384;-2.732;2022-07-06T13:57:08;1;1;
69123;PMS5003;56232;53.384;-2.732;2022-07-06T13:59:34;1;1;
69123;PMS5003;56232;53.384;-2.732;2022-07-06T14:01:59;2;2;
69123;PMS5003;56232;53.384;-2.732;2022-07-06T14:04:25;1;1;
69123;PMS5003;56232;53.384;-2.732;2022-07-06T14:06:50;1;1;
69123;PMS5003;56232;53.384;-2.732;2022-07-06T14:09:16;1;1;
69123;PMS5003;56232;53.384;-2.732;2022-07-06T14:11:41;2;2;
69123;PMS5003;56232;53.384;-2.732;2022-07-06T14:14:07;2;2;
69123;PMS5003;56232;53.384;-2.732;2022-07-06T14:16:33;0;0;
69123;PMS5003;56232;53.384;-2.732;2022-07-06T14:18:58;1;1;
69123;PMS5003;56232;53.384;-2.732;2022-07-06T14:21:24;1;1;
69123;PMS5003;56232;53.384;-2.732;2022-07-06T14:23:49;3;2;
69123;PMS5003;56232;53.384;-2.732;2022-07-06T14:26:14;1;1;
69123;PMS5003;56232;53.384;-2.732;2022-07-06T14:28:40;2;1;
69123;PMS5003;56232;53.384;-2.732;2022-07-06T14:31:06;4;3;
69123;PMS5003;56232;53.384;-2.732;2022-07-06T14:33:31;1;1;
69123;PMS5003;56232;53.384;-2.732;2022-07-06T14:35:57;1;1;
69123;PMS5003;56232;53.384;-2.732;2022-07-06T14:38:22;2;2;
69123;PMS5003;56232;53.384;-2.732;2022-07-06T14:40:48;1;0;
69123;PMS5003;56232;53.384;-2.732;2022-07-06T14:43:13;4;2;
69123;PMS5003;56232;53.384;-2.732;2022-07-06T14:45:39;2;2;
69123;PMS5003;56232;53.384;-2.732;2022-07-06T14:48:05;2;2;
69123;PMS5003;56232;53.384;-2.732;2022-07-06T14:50:30;1;1;
69123;PMS5003;56232;53.384;-2.732;2022-07-06T14:52:55;2;2;
69123;PMS5003;56232;53.384;-2.732;2022-07-06T14:55:21;3;3;
69123;PMS5003;56232;53.384;-2.732;2022-07-06T14:57:47;3;2;
69123;PMS5003;56232;53.384;-2.732;2022-07-06T15:00:13;3;3;
69123;PMS5003;56232;53.384;-2.732;2022-07-06T15:02:38;2;2;
69123;PMS5003;56232;53.384;-2.732;2022-07-06T15:05:03;3;3;
69123;PMS5003;56232;53.384;-2.732;2022-07-06T15:07:29;4;3;
69123;PMS5003;56232;53.384;-2.732;2022-07-06T15:09:54;3;2;
69123;PMS5003;56232;53.384;-2.732;2022-07-06T15:12:20;3;3;
69123;PMS5003;56232;53.384;-2.732;2022-07-06T15:14:45;3;3;
69123;PMS5003;56232;53.384;-2.732;2022-07-06T15:17:11;4;4;
69123;PMS5003;56232;53.384;-2.732;2022-07-06T15:19:36;3;3;
69123;PMS5003;56232;53.384;-2.732;2022-07-06T15:22:02;2;1;
69123;PMS5003;56232;53.384;-2.732;2022-07-06T15:24:28;4;3;
69123;PMS5003;56232;53.384;-2.732;2022-07-06T15:26:53;4;3;
69123;PMS5003;56232;53.384;-2.732;2022-07-06T15:29:19;1;1;
69123;PMS5003;56232;53.384;-2.732;2022-07-06T15:31:44;2;2;
69123;PMS5003;56232;53.384;-2.732;2022-07-06T15:34:10;3;3;
69123;PMS5003;56232;53.384;-2.732;2022-07-06T15:36:35;1;1;
69123;PMS5003;56232;53.384;-2.732;2022-07-06T15:39:01;3;3;
69123;PMS5003;56232;53.384;-2.732;2022-07-06T15:41:27;2;2;
69123;PMS5003;56232;53.384;-2.732;2022-07-06T15:43:52;5;5;
69123;PMS5003;56232;53.384;-2.732;2022-07-06T15:46:18;3;3;
69123;PMS5003;56232;53.384;-2.732;2022-07-06T15:48:43;3;3;
69123;PMS5003;56232;53.384;-2.732;2022-07-06T15:51:09;3;3;
69123;PMS5003;56232;53.384;-2.732;2022-07-06T15:53:34;3;3;
69123;PMS5003;56232;53.384;-2.732;2022-07-06T15:56:00;2;2;
69123;PMS5003;56232;53.384;-2.732;2022-07-06T15:58:25;3;3;
69123;PMS5003;56232;53.384;-2.732;2022-07-06T16:00:51;2;1;
69123;PMS5003;56232;53.384;-2.732;2022-07-06T16:03:16;2;2;
69123;PMS5003;56232;53.384;-2.732;2022-07-06T16:05:43;2;2;
69123;PMS5003;56232;53.384;-2.732;2022-07-06T16:08:08;3;2;
69123;PMS5003;56232;53.384;-2.732;2022-07-06T16:10:33;3;1;
69123;PMS5003;56232;53.384;-2.732;2022-07-06T16:12:59;3;2;
69123;PMS5003;56232;53.384;-2.732;2022-07-06T16:15:25;3;3;
69123;PMS5003;56232;53.384;-2.732;2022-07-06T16:17:50;2;2;
69123;PMS5003;56232;53.384;-2.732;2022-07-06T16:20:15;1;1;
69123;PMS5003;56232;53.384;-2.732;2022-07-06T16:22:41;3;3;
69123;PMS5003;56232;53.384;-2.732;2022-07-06T16:25:07;4;2;
69123;PMS5003;56232;53.384;-2.732;2022-07-06T16:27:32;2;2;
69123;PMS5003;56232;53.384;-2.732;2022-07-06T16:29:58;0;0;
69123;PMS5003;56232;53.384;-2.732;2022-07-06T16:32:24;1;1;
69123;PMS5003;56232;53.384;-2.732;2022-07-06T16:34:49;1;1;
69123;PMS5003;56232;53.384;-2.732;2022-07-06T16:37:14;2;2;
69123;PMS5003;56232;53.384;-2.732;2022-07-06T16:39:40;1;1;
69123;PMS5003;56232;53.384;-2.732;2022-07-06T16:42:06;2;2;
69123;PMS5003;56232;53.384;-2.732;2022-07-06T16:44:31;3;3;
69123;PMS5003;56232;53.384;-2.732;2022-07-06T16:46:57;3;3;
69123;PMS5003;56232;53.384;-2.732;2022-07-06T16:49:22;2;2;
69123;PMS5003;56232;53.384;-2.732;2022-07-06T16:51:48;4;4;
69123;PMS5003;56232;53.384;-2.732;2022-07-06T16:54:13;3;2;